createdAt,value
2023-02-16T00:00:34.512Z,28.07
2023-02-16T00:03:03.030Z,26.20
2023-02-16T00:05:32.953Z,28.53
2023-02-16T00:08:01.045Z,27.33
2023-02-16T00:10:33.140Z,24.70
2023-02-16T00:13:18.787Z,27.30
2023-02-16T00:15:46.986Z,26.30
2023-02-16T00:18:17.632Z,26.90
2023-02-16T00:20:45.774Z,28.80
2023-02-16T00:23:13.649Z,24.90
2023-02-16T00:25:42.932Z,26.67
2023-02-16T00:28:17.495Z,26.97
2023-02-16T00:30:46.072Z,27.67
2023-02-16T00:33:16.493Z,26.20
2023-02-16T00:35:45.354Z,26.87
2023-02-16T00:38:13.499Z,28.43
2023-02-16T00:40:43.405Z,24.50
2023-02-16T00:43:20.341Z,27.77
2023-02-16T00:45:49.083Z,26.37
2023-02-16T00:48:16.793Z,26.57
2023-02-16T00:50:44.693Z,26.20
2023-02-16T00:53:12.720Z,25.23
2023-02-16T00:55:42.720Z,25.97
2023-02-16T00:58:16.327Z,26.90
2023-02-16T01:00:47.923Z,26.07
2023-02-16T01:03:17.702Z,28.70
2023-02-16T01:05:46.645Z,26.73
2023-02-16T01:08:35.110Z,27.70
2023-02-16T01:11:09.954Z,25.07
2023-02-16T01:13:41.552Z,25.60
2023-02-16T01:16:17.445Z,27.17
2023-02-16T01:18:45.987Z,24.87
2023-02-16T01:21:14.212Z,26.27
2023-02-16T01:23:42.240Z,26.97
2023-02-16T01:26:15.765Z,26.67
2023-02-16T01:28:45.057Z,26.60
2023-02-16T01:31:13.568Z,27.43
2023-02-16T01:33:42.700Z,26.10
2023-02-16T01:36:21.190Z,26.03
2023-02-16T01:38:49.066Z,29.10
2023-02-16T01:41:23.573Z,29.03
2023-02-16T01:43:54.114Z,27.30
2023-02-16T01:46:31.214Z,28.80
2023-02-16T01:48:59.868Z,26.33
2023-02-16T01:51:30.349Z,28.67
2023-02-16T01:54:03.382Z,27.70
2023-02-16T01:56:37.480Z,28.20
2023-02-16T01:59:10.345Z,30.73
2023-02-16T02:01:42.216Z,27.83
2023-02-16T02:04:33.549Z,28.03
2023-02-16T02:07:01.856Z,27.37
2023-02-16T02:09:37.484Z,27.70
2023-02-16T02:12:16.405Z,28.97
2023-02-16T02:14:44.953Z,26.77
2023-02-16T02:17:16.062Z,27.20
2023-02-16T02:19:50.500Z,27.37
2023-02-16T02:23:24.037Z,28.20
2023-02-16T02:26:42.311Z,28.70
2023-02-16T02:29:42.003Z,29.90
2023-02-16T02:32:19.632Z,28.00
2023-02-16T02:35:00.195Z,28.30
2023-02-16T02:37:37.852Z,28.17
2023-02-16T02:40:09.977Z,27.93
2023-02-16T02:42:42.527Z,29.37
2023-02-16T02:45:16.104Z,30.63
2023-02-16T02:47:47.177Z,29.90
2023-02-16T02:51:02.474Z,29.83
2023-02-16T02:53:30.898Z,31.40
2023-02-16T02:56:18.039Z,31.73
2023-02-16T02:59:05.100Z,36.77
2023-02-16T03:01:35.988Z,35.40
2023-02-16T03:04:05.605Z,40.17
2023-02-16T03:06:35.289Z,42.90
2023-02-16T03:09:06.964Z,43.40
2023-02-16T03:11:52.013Z,45.87
2023-02-16T03:14:21.773Z,47.37
2023-02-16T03:17:10.882Z,46.87
2023-02-16T03:19:57.513Z,50.93
2023-02-16T03:22:43.217Z,52.40
2023-02-16T03:25:28.334Z,52.03
2023-02-16T03:28:14.522Z,50.53
2023-02-16T03:30:43.382Z,46.97
2023-02-16T03:33:14.342Z,49.83
2023-02-16T03:35:42.166Z,45.47
2023-02-16T03:38:09.858Z,46.40
2023-02-16T03:40:40.942Z,47.80
2023-02-16T03:43:10.124Z,49.70
2023-02-16T03:45:40.503Z,44.47
2023-02-16T03:48:08.726Z,46.00
2023-02-16T03:50:37.754Z,46.50
2023-02-16T03:53:08.524Z,44.50
2023-02-16T03:55:37.479Z,43.43
2023-02-16T03:58:06.357Z,43.40
2023-02-16T04:00:34.611Z,44.00
2023-02-16T04:03:02.335Z,41.47
2023-02-16T04:05:31.824Z,43.57
2023-02-16T04:08:00.820Z,40.77
2023-02-16T04:10:29.189Z,38.27
2023-02-16T04:12:56.153Z,39.80
2023-02-16T04:15:26.130Z,39.97
2023-02-16T04:17:55.018Z,42.93
2023-02-16T04:20:25.907Z,41.20
2023-02-16T04:22:53.869Z,39.77
2023-02-16T04:25:23.857Z,40.30
2023-02-16T04:27:52.158Z,38.53
2023-02-16T04:30:21.650Z,37.40
2023-02-16T04:32:49.468Z,41.00
2023-02-16T04:35:17.345Z,41.73
2023-02-16T04:37:45.699Z,38.60
2023-02-16T04:40:14.502Z,39.77
2023-02-16T04:42:44.449Z,40.20
2023-02-16T04:45:13.490Z,37.53
2023-02-16T04:47:41.382Z,37.10
2023-02-16T04:50:10.198Z,39.27
2023-02-16T04:52:37.955Z,38.50
2023-02-16T04:55:07.575Z,39.70
2023-02-16T04:57:35.175Z,39.40
2023-02-16T05:00:04.849Z,35.90
2023-02-16T05:02:33.095Z,37.40
2023-02-16T05:05:00.905Z,39.47
2023-02-16T05:07:28.657Z,37.70
2023-02-16T05:09:56.320Z,37.20
2023-02-16T05:12:41.470Z,40.90
2023-02-16T05:15:10.592Z,36.50
2023-02-16T05:17:38.195Z,40.70
2023-02-16T05:20:07.251Z,36.20
2023-02-16T05:22:35.545Z,38.40
2023-02-16T05:25:03.231Z,38.90
2023-02-16T05:27:32.158Z,37.83
2023-02-16T05:29:59.981Z,37.10
2023-02-16T05:32:29.329Z,36.20
2023-02-16T05:34:57.350Z,38.53
2023-02-16T05:37:24.909Z,36.03
2023-02-16T05:39:53.729Z,36.47
2023-02-16T05:42:21.426Z,35.17
2023-02-16T05:44:49.079Z,36.20
2023-02-16T05:47:16.745Z,37.67
2023-02-16T05:49:45.711Z,37.10
2023-02-16T05:52:13.331Z,39.30
2023-02-16T05:54:40.995Z,36.13
2023-02-16T05:57:08.594Z,37.77
2023-02-16T05:59:36.152Z,35.67
2023-02-16T06:02:03.773Z,37.17
2023-02-16T06:04:32.526Z,37.20
2023-02-16T06:07:01.479Z,33.17
2023-02-16T06:09:31.257Z,36.60
2023-02-16T06:11:58.900Z,37.43
2023-02-16T06:14:26.731Z,36.90
2023-02-16T06:16:56.454Z,37.30
2023-02-16T06:19:24.451Z,37.00
2023-02-16T06:21:52.052Z,35.03
2023-02-16T06:24:21.045Z,37.60
2023-02-16T06:26:48.650Z,36.80
2023-02-16T06:29:16.264Z,37.10
2023-02-16T06:31:43.974Z,35.70
2023-02-16T06:34:11.672Z,37.87
2023-02-16T06:36:42.335Z,36.40
2023-02-16T06:39:10.202Z,37.73
2023-02-16T06:41:40.374Z,37.57
2023-02-16T06:44:12.157Z,35.80
2023-02-16T06:46:39.871Z,38.53
2023-02-16T06:49:07.478Z,37.60
2023-02-16T06:51:35.240Z,37.17
2023-02-16T06:54:02.822Z,37.23
2023-02-16T06:56:30.439Z,41.93
2023-02-16T06:58:59.412Z,37.67
2023-02-16T07:01:27.018Z,38.20
2023-02-16T07:03:56.378Z,39.50
2023-02-16T07:06:25.144Z,36.30
2023-02-16T07:08:53.457Z,40.13
2023-02-16T07:11:21.284Z,38.87
2023-02-16T07:13:49.231Z,40.00
2023-02-16T07:16:18.218Z,38.00
2023-02-16T07:18:46.238Z,39.33
2023-02-16T07:21:14.316Z,39.90
2023-02-16T07:23:41.958Z,38.80
2023-02-16T07:26:09.780Z,38.57
2023-02-16T07:28:37.427Z,39.10
2023-02-16T07:31:09.737Z,40.00
2023-02-16T07:33:39.300Z,37.70
2023-02-16T07:36:07.974Z,37.90
2023-02-16T07:38:35.662Z,36.97
2023-02-16T07:41:05.217Z,37.33
2023-02-16T07:43:34.555Z,38.23
2023-02-16T07:46:02.478Z,37.33
2023-02-16T07:48:30.051Z,38.53
2023-02-16T07:50:59.653Z,37.30
2023-02-16T07:53:27.273Z,38.47
2023-02-16T07:55:54.894Z,39.97
2023-02-16T07:58:28.163Z,38.90
2023-02-16T08:00:56.745Z,36.30
2023-02-16T08:03:24.754Z,35.80
2023-02-16T08:05:52.465Z,38.90
2023-02-16T08:08:21.428Z,36.30
2023-02-16T08:10:49.032Z,34.77
2023-02-16T08:13:16.595Z,32.97
2023-02-16T08:15:44.748Z,34.47
2023-02-16T08:18:12.661Z,37.23
2023-02-16T08:21:02.387Z,34.63
2023-02-16T08:23:29.642Z,36.20
2023-02-16T08:25:59.325Z,35.07
2023-02-16T08:28:28.354Z,34.87
2023-02-16T08:30:56.115Z,36.73
2023-02-16T08:33:23.753Z,37.37
2023-02-16T08:35:51.408Z,39.87
2023-02-16T08:38:19.044Z,37.37
2023-02-16T08:40:50.147Z,38.70
2023-02-16T08:43:17.811Z,38.87
2023-02-16T08:45:45.670Z,39.57
2023-02-16T08:48:13.261Z,36.57
2023-02-16T08:50:46.992Z,35.90
2023-02-16T08:53:15.453Z,36.00
2023-02-16T08:55:43.148Z,36.77
2023-02-16T08:58:12.080Z,39.13
2023-02-16T09:00:39.775Z,36.57
2023-02-16T09:03:07.567Z,34.90
2023-02-16T09:05:35.301Z,33.77
2023-02-16T09:08:03.377Z,37.33
2023-02-16T09:10:30.993Z,36.57
2023-02-16T09:12:58.543Z,37.43
2023-02-16T09:15:27.576Z,35.77
2023-02-16T09:17:55.258Z,35.77
2023-02-16T09:20:23.542Z,37.27
2023-02-16T09:22:51.149Z,37.60
2023-02-16T09:25:18.774Z,36.37
2023-02-16T09:27:46.676Z,36.83
2023-02-16T09:30:15.107Z,35.67
2023-02-16T09:32:44.053Z,36.90
2023-02-16T09:35:11.878Z,36.40
2023-02-16T09:37:39.449Z,36.00
2023-02-16T09:40:08.528Z,34.90
2023-02-16T09:42:47.493Z,35.60
2023-02-16T09:45:16.891Z,35.23
2023-02-16T09:47:47.414Z,32.60
2023-02-16T09:50:27.744Z,36.33
2023-02-16T09:53:03.563Z,36.20
2023-02-16T09:55:38.064Z,33.63
2023-02-16T09:58:09.582Z,37.30
2023-02-16T10:00:45.870Z,38.20
2023-02-16T10:03:28.839Z,35.37
2023-02-16T10:06:02.588Z,37.43
2023-02-16T10:08:32.835Z,47.07
2023-02-16T10:11:04.166Z,40.17
2023-02-16T10:13:38.871Z,39.37
2023-02-16T10:16:08.262Z,36.83
2023-02-16T10:18:39.542Z,36.73
2023-02-16T10:21:10.446Z,38.13
2023-02-16T10:23:45.465Z,39.73
2023-02-16T10:26:19.521Z,39.30
2023-02-16T10:28:48.554Z,38.70
2023-02-16T10:31:23.442Z,40.97
2023-02-16T10:34:13.555Z,39.17
2023-02-16T10:36:58.386Z,37.40
2023-02-16T10:39:29.263Z,37.93
2023-02-16T10:42:03.615Z,38.47
2023-02-16T10:44:34.996Z,37.80
2023-02-16T10:47:04.614Z,36.33
2023-02-16T10:49:33.949Z,38.33
2023-02-16T10:52:02.945Z,36.80
2023-02-16T10:54:32.097Z,38.93
2023-02-16T10:57:01.754Z,36.57
2023-02-16T10:59:37.907Z,36.07
2023-02-16T11:02:18.783Z,35.97
2023-02-16T11:04:49.556Z,37.00
2023-02-16T11:07:18.957Z,37.53
2023-02-16T11:09:48.615Z,39.00
2023-02-16T11:12:18.572Z,36.23
2023-02-16T11:14:51.141Z,36.00
2023-02-16T11:17:19.911Z,37.23
2023-02-16T11:19:54.291Z,39.03
2023-02-16T11:22:28.609Z,37.73
2023-02-16T11:24:56.530Z,38.23
2023-02-16T11:27:25.096Z,38.90
2023-02-16T11:30:22.174Z,37.93
2023-02-16T11:32:50.598Z,37.53
2023-02-16T11:35:20.154Z,38.73
2023-02-16T11:37:48.118Z,37.17
2023-02-16T11:40:21.875Z,37.20
2023-02-16T11:42:51.645Z,38.00
2023-02-16T11:45:30.922Z,38.23
2023-02-16T11:48:01.577Z,39.50
2023-02-16T11:50:32.194Z,39.73
2023-02-16T11:53:15.856Z,39.47
2023-02-16T11:55:45.267Z,37.87
2023-02-16T11:58:17.859Z,36.90
2023-02-16T12:00:55.248Z,37.60
2023-02-16T12:03:39.165Z,39.13
2023-02-16T12:06:16.232Z,40.13
2023-02-16T12:08:58.160Z,37.13
2023-02-16T12:11:31.553Z,40.40
2023-02-16T12:14:09.071Z,38.47
2023-02-16T12:16:43.198Z,39.60
2023-02-16T12:19:21.066Z,41.77
2023-02-16T12:21:52.308Z,40.17
2023-02-16T12:24:31.975Z,41.73
2023-02-16T12:27:02.646Z,40.20
2023-02-16T12:29:39.053Z,38.03
2023-02-16T12:32:21.953Z,40.73
2023-02-16T12:35:01.574Z,42.50
2023-02-16T12:37:35.302Z,40.33
2023-02-16T12:40:11.552Z,39.90
2023-02-16T12:42:49.574Z,41.73
2023-02-16T12:45:19.792Z,42.60
2023-02-16T12:47:49.715Z,42.43
2023-02-16T12:50:21.535Z,42.50
2023-02-16T12:52:55.155Z,42.50
2023-02-16T12:55:27.385Z,40.93
2023-02-16T12:57:59.407Z,41.83
2023-02-16T13:00:36.914Z,44.53
2023-02-16T13:03:14.542Z,45.03
2023-02-16T13:05:42.857Z,43.53
2023-02-16T13:08:16.912Z,46.90
2023-02-16T13:10:54.129Z,46.03
2023-02-16T13:13:25.288Z,47.37
2023-02-16T13:15:57.733Z,47.87
2023-02-16T13:18:28.447Z,47.90
2023-02-16T13:20:59.908Z,47.70
2023-02-16T13:23:39.067Z,45.53
2023-02-16T13:26:17.921Z,46.93
2023-02-16T13:28:58.847Z,50.33
2023-02-16T13:31:48.016Z,48.67
2023-02-16T13:34:44.537Z,45.73
2023-02-16T13:37:24.544Z,47.83
2023-02-16T13:40:06.031Z,46.80
2023-02-16T13:42:52.023Z,47.27
2023-02-16T13:45:21.367Z,48.93
2023-02-16T13:47:49.760Z,48.60
2023-02-16T13:50:30.235Z,47.97
2023-02-16T13:53:02.191Z,47.83
2023-02-16T13:55:33.604Z,45.47
2023-02-16T13:58:06.509Z,46.17
2023-02-16T14:00:36.934Z,46.67
2023-02-16T14:03:12.106Z,44.80
2023-02-16T14:05:41.689Z,46.43
2023-02-16T14:08:22.102Z,45.33
2023-02-16T14:11:09.641Z,45.50
2023-02-16T14:13:51.305Z,47.10
2023-02-16T14:16:31.531Z,48.07
2023-02-16T14:19:01.143Z,45.47
2023-02-16T14:21:33.291Z,46.87
2023-02-16T14:24:03.110Z,47.30
2023-02-16T14:26:32.915Z,49.37
2023-02-16T14:29:12.463Z,46.27
2023-02-16T14:31:48.765Z,45.90
2023-02-16T14:34:20.532Z,48.57
2023-02-16T14:37:29.168Z,47.77
2023-02-16T14:40:07.906Z,45.87
2023-02-16T14:42:38.447Z,46.77
2023-02-16T14:45:19.693Z,45.10
2023-02-16T14:47:57.518Z,47.63
2023-02-16T14:50:37.147Z,45.17
2023-02-16T14:53:20.748Z,45.20
2023-02-16T14:56:11.849Z,44.00
2023-02-16T14:58:48.328Z,42.00
2023-02-16T15:01:17.835Z,40.53
2023-02-16T15:03:48.062Z,43.63
2023-02-16T15:06:21.023Z,42.57
2023-02-16T15:08:56.969Z,43.73
2023-02-16T15:11:30.333Z,41.47
2023-02-16T15:14:05.396Z,42.80
2023-02-16T15:16:33.610Z,42.33
2023-02-16T15:19:04.670Z,45.93
2023-02-16T15:21:33.183Z,43.30
2023-02-16T15:24:02.013Z,43.60
2023-02-16T15:26:31.583Z,42.20
2023-02-16T15:29:00.547Z,44.97
2023-02-16T15:31:33.267Z,45.30
2023-02-16T15:34:05.629Z,45.63
2023-02-16T15:36:35.915Z,44.90
2023-02-16T15:39:06.952Z,45.80
2023-02-16T15:41:37.367Z,45.10
2023-02-16T15:44:07.369Z,44.23
2023-02-16T15:46:38.239Z,44.23
2023-02-16T15:49:13.265Z,43.97
2023-02-16T15:51:43.168Z,45.83
2023-02-16T15:54:19.954Z,47.40
2023-02-16T15:56:49.032Z,46.27
2023-02-16T15:59:27.548Z,46.00
2023-02-16T16:02:01.919Z,48.07
2023-02-16T16:04:29.811Z,48.10
2023-02-16T16:06:57.946Z,48.13
2023-02-16T16:09:27.666Z,49.27
2023-02-16T16:11:57.630Z,48.73
2023-02-16T16:14:27.004Z,46.70
2023-02-16T16:16:55.818Z,50.20
2023-02-16T16:19:32.860Z,52.07
2023-02-16T16:22:01.193Z,54.17
2023-02-16T16:24:33.954Z,54.10
2023-02-16T16:27:04.335Z,53.90
2023-02-16T16:29:38.540Z,56.27
2023-02-16T16:32:08.242Z,56.93
2023-02-16T16:34:39.201Z,58.70
2023-02-16T16:37:08.395Z,59.83
2023-02-16T16:39:39.164Z,56.37
2023-02-16T16:42:20.004Z,58.80
2023-02-16T16:45:07.618Z,57.90
2023-02-16T16:47:38.561Z,56.80
2023-02-16T16:50:30.032Z,55.70
2023-02-16T16:52:58.692Z,57.13
2023-02-16T16:55:32.783Z,55.47
2023-02-16T16:58:03.266Z,55.00
2023-02-16T17:00:34.394Z,56.30
2023-02-16T17:03:02.643Z,56.80
2023-02-16T17:05:31.786Z,56.50
2023-02-16T17:07:59.467Z,53.20
2023-02-16T17:10:27.546Z,49.23
2023-02-16T17:12:57.562Z,49.10
2023-02-16T17:15:32.817Z,45.50
2023-02-16T17:18:00.971Z,42.97
2023-02-16T17:20:28.706Z,45.10
2023-02-16T17:22:58.654Z,44.60
2023-02-16T17:25:26.600Z,42.47
2023-02-16T17:27:54.264Z,43.30
2023-02-16T17:30:22.325Z,40.80
2023-02-16T17:32:50.089Z,44.13
2023-02-16T17:35:18.069Z,45.07
2023-02-16T17:37:45.876Z,43.40
2023-02-16T17:40:19.474Z,42.13
2023-02-16T17:42:47.712Z,41.40
2023-02-16T17:45:22.484Z,41.63
2023-02-16T17:47:52.499Z,43.73
2023-02-16T17:50:21.227Z,44.03
2023-02-16T17:52:48.979Z,41.03
2023-02-16T17:55:18.388Z,42.87
2023-02-16T17:57:46.621Z,43.30
2023-02-16T18:00:17.603Z,44.00
2023-02-16T18:02:45.401Z,42.57
2023-02-16T18:05:13.201Z,42.83
2023-02-16T18:07:41.109Z,43.70
2023-02-16T18:10:15.196Z,41.73
2023-02-16T18:12:44.241Z,43.23
2023-02-16T18:15:12.004Z,43.40
2023-02-16T18:17:39.619Z,46.43
2023-02-16T18:20:09.262Z,43.87
2023-02-16T18:22:36.936Z,42.93
2023-02-16T18:25:05.199Z,42.93
2023-02-16T18:27:33.134Z,41.73
2023-02-16T18:30:02.382Z,43.27
2023-02-16T18:32:30.054Z,44.50
2023-02-16T18:34:58.369Z,54.10
2023-02-16T18:37:26.279Z,45.73
2023-02-16T18:39:55.622Z,44.20
2023-02-16T18:42:23.735Z,44.63
2023-02-16T18:44:51.507Z,43.67
2023-02-16T18:47:20.943Z,41.93
2023-02-16T18:49:50.497Z,41.23
2023-02-16T18:52:18.581Z,43.63
2023-02-16T18:54:46.510Z,41.07
2023-02-16T18:57:15.071Z,39.50
2023-02-16T18:59:43.182Z,41.70
2023-02-16T19:02:12.342Z,41.33
2023-02-16T19:04:41.559Z,41.80
2023-02-16T19:07:09.377Z,44.03
2023-02-16T19:09:37.400Z,44.40
2023-02-16T19:12:05.476Z,43.20
2023-02-16T19:14:33.388Z,43.30
2023-02-16T19:17:01.283Z,45.57
2023-02-16T19:19:30.821Z,45.93
2023-02-16T19:22:02.842Z,45.60
2023-02-16T19:24:31.087Z,45.47
2023-02-16T19:26:58.747Z,47.33
2023-02-16T19:29:26.545Z,46.90
2023-02-16T19:31:58.060Z,47.20
2023-02-16T19:34:26.127Z,47.10
2023-02-16T19:36:54.051Z,48.13
2023-02-16T19:39:23.668Z,46.93
2023-02-16T19:41:51.938Z,46.70
2023-02-16T19:44:20.162Z,49.07
2023-02-16T19:46:48.202Z,46.80
2023-02-16T19:49:17.101Z,52.37
2023-02-16T19:51:46.356Z,50.60
2023-02-16T19:54:14.605Z,51.53
2023-02-16T19:56:43.748Z,55.20
2023-02-16T19:59:11.646Z,53.70
2023-02-16T20:01:39.544Z,52.07
2023-02-16T20:04:07.541Z,54.50
2023-02-16T20:06:39.170Z,54.70
2023-02-16T20:09:07.776Z,52.60
2023-02-16T20:11:35.864Z,56.27
2023-02-16T20:14:05.022Z,54.77
2023-02-16T20:16:33.029Z,55.43
2023-02-16T20:19:00.986Z,53.17
2023-02-16T20:21:29.486Z,53.87
2023-02-16T20:23:59.501Z,53.60
2023-02-16T20:26:34.391Z,52.63
2023-02-16T20:29:02.944Z,53.20
2023-02-16T20:31:35.120Z,51.90
2023-02-16T20:34:03.160Z,53.77
2023-02-16T20:36:31.661Z,52.83
2023-02-16T20:38:59.760Z,53.53
2023-02-16T20:41:27.727Z,50.30
2023-02-16T20:43:55.471Z,54.67
2023-02-16T20:46:23.975Z,52.70
2023-02-16T20:48:53.989Z,54.87
2023-02-16T20:51:22.367Z,57.17
2023-02-16T20:53:50.411Z,58.80
2023-02-16T20:56:21.397Z,61.57
2023-02-16T20:58:50.526Z,59.37
2023-02-16T21:01:23.814Z,55.87
2023-02-16T21:03:53.644Z,58.47
2023-02-16T21:06:23.498Z,60.57
2023-02-16T21:08:51.847Z,56.67
2023-02-16T21:11:19.804Z,57.43
2023-02-16T21:13:47.906Z,62.00
2023-02-16T21:16:16.006Z,58.47
2023-02-16T21:18:44.793Z,59.77
2023-02-16T21:21:15.623Z,58.17
2023-02-16T21:23:44.424Z,62.27
2023-02-16T21:26:12.831Z,63.07
2023-02-16T21:28:41.313Z,62.07
2023-02-16T21:31:14.066Z,60.80
2023-02-16T21:33:42.246Z,62.20
2023-02-16T21:36:12.623Z,62.17
2023-02-16T21:38:42.341Z,57.30
2023-02-16T21:41:24.481Z,63.50
2023-02-16T21:43:58.583Z,61.40
2023-02-16T21:46:31.356Z,57.27
2023-02-16T21:48:58.094Z,59.70
2023-02-16T21:51:28.882Z,63.97
2023-02-16T21:54:01.520Z,60.33
2023-02-16T21:56:32.167Z,61.87
2023-02-16T21:59:00.354Z,59.83
2023-02-16T22:01:30.113Z,63.13
2023-02-16T22:03:59.490Z,59.00
2023-02-16T22:06:28.587Z,60.90
2023-02-16T22:08:57.999Z,62.93
2023-02-16T22:11:26.146Z,60.83
2023-02-16T22:13:55.906Z,61.93
2023-02-16T22:16:24.968Z,58.70
2023-02-16T22:18:57.509Z,56.97
2023-02-16T22:21:27.382Z,55.40
2023-02-16T22:23:55.554Z,57.70
2023-02-16T22:26:27.110Z,57.33
2023-02-16T22:28:55.753Z,58.70
2023-02-16T22:31:27.929Z,56.30
2023-02-16T22:33:57.080Z,55.67
2023-02-16T22:36:25.022Z,55.17
2023-02-16T22:38:53.488Z,51.57
2023-02-16T22:41:22.386Z,53.57
2023-02-16T22:43:54.891Z,53.73
2023-02-16T22:46:23.928Z,52.67
2023-02-16T22:48:51.966Z,49.90
2023-02-16T22:51:21.686Z,51.50
2023-02-16T22:53:49.709Z,51.87
2023-02-16T22:56:18.800Z,52.40
2023-02-16T22:58:46.613Z,49.90
2023-02-16T23:01:18.383Z,49.83
2023-02-16T23:03:50.215Z,49.90
2023-02-16T23:06:20.385Z,49.07
2023-02-16T23:08:52.445Z,49.17
2023-02-16T23:11:20.280Z,50.27
2023-02-16T23:13:48.019Z,50.90
2023-02-16T23:16:21.742Z,52.03
2023-02-16T23:18:50.399Z,50.23
2023-02-16T23:21:20.170Z,48.17
2023-02-16T23:23:49.130Z,50.47
2023-02-16T23:26:18.312Z,48.47
2023-02-16T23:28:46.429Z,49.43
2023-02-16T23:31:14.244Z,48.60
2023-02-16T23:33:43.654Z,46.60
2023-02-16T23:36:11.582Z,51.07
2023-02-16T23:38:39.625Z,48.87
2023-02-16T23:41:09.107Z,46.90
2023-02-16T23:43:36.909Z,45.53
2023-02-16T23:46:05.542Z,45.67
2023-02-16T23:48:35.600Z,46.70
2023-02-16T23:51:05.096Z,47.57
2023-02-16T23:53:33.078Z,47.30
2023-02-16T23:56:01.785Z,45.70
2023-02-16T23:58:30.179Z,46.27
